Time,TemperatureF,DewpointF,PressureIn,WindDirection,WindDirectionDegrees,WindSpeedMPH,WindSpeedGustMPH,Humidity,HourlyPrecipIn,Conditions,Clouds,dailyrainin,SoftwareType,DateUTC
2013-08-08 00:12:00,52.0,32.0,-100.00,SE,145,2.0,4.0,46,-99.99,,,-99.99,,2013-08-08 06:12:00,
2013-08-08 00:32:00,51.0,32.0,-100.00,SSE,150,4.0,7.0,46,-99.99,,,-99.99,,2013-08-08 06:32:00,
2013-08-08 00:52:00,53.0,32.0,-100.00,SE,135,6.0,10.0,44,-99.99,,,-99.99,,2013-08-08 06:52:00,
2013-08-08 01:12:00,54.0,32.0,-100.00,SE,130,6.0,9.0,42,-99.99,,,-99.99,,2013-08-08 07:12:00,
2013-08-08 01:32:00,54.0,32.0,-100.00,SE,130,4.0,9.0,43,-99.99,,,-99.99,,2013-08-08 07:32:00,
2013-08-08 01:53:00,53.0,32.0,-100.00,SE,140,6.0,9.0,44,-99.99,,,-99.99,,2013-08-08 07:53:00,
2013-08-08 02:11:00,54.0,32.0,-100.00,SE,130,6.0,10.0,42,-99.99,,,-99.99,,2013-08-08 08:11:00,
2013-08-08 02:53:00,50.0,31.0,-100.00,SE,145,4.0,7.0,47,-99.99,,,-99.99,,2013-08-08 08:53:00,
2013-08-08 03:12:00,49.0,30.0,-100.00,SSE,150,2.0,6.0,47,-99.99,,,-99.99,,2013-08-08 09:12:00,
2013-08-08 03:32:00,48.0,31.0,-100.00,SSE,160,1.0,3.0,50,-99.99,,,-99.99,,2013-08-08 09:32:00,
2013-08-08 03:53:00,48.0,31.0,-100.00,SSE,160,4.0,6.0,50,-99.99,,,-99.99,,2013-08-08 09:53:00,
2013-08-08 04:12:00,48.0,31.0,-100.00,SSE,165,3.0,6.0,51,-99.99,,,-99.99,,2013-08-08 10:12:00,
2013-08-08 04:32:00,48.0,32.0,-100.00,South,175,4.0,6.0,53,-99.99,,,-99.99,,2013-08-08 10:32:00,
2013-08-08 04:52:00,48.0,32.0,-100.00,South,180,1.0,2.0,54,-99.99,,,-99.99,,2013-08-08 10:52:00,
2013-08-08 05:11:00,48.0,34.0,-100.00,SSW,195,1.0,3.0,58,-99.99,,,-99.99,,2013-08-08 11:11:00,
2013-08-08 05:32:00,48.0,35.0,-100.00,SSW,205,4.0,6.0,60,-99.99,,,-99.99,,2013-08-08 11:32:00,
2013-08-08 05:52:00,49.0,35.0,-100.00,South,190,4.0,8.0,57,-99.99,,,-99.99,,2013-08-08 11:52:00,
2013-08-08 06:11:00,49.0,35.0,-100.00,South,190,5.0,10.0,57,-99.99,,,-99.99,,2013-08-08 12:11:00,
2013-08-08 06:32:00,51.0,34.0,-100.00,SSE,165,6.0,10.0,51,-99.99,,,-99.99,,2013-08-08 12:32:00,
2013-08-08 06:53:00,51.0,34.0,-100.00,South,170,6.0,9.0,52,-99.99,,,-99.99,,2013-08-08 12:53:00,
2013-08-08 07:11:00,52.0,35.0,-100.00,SSE,165,3.0,7.0,51,-99.99,,,-99.99,,2013-08-08 13:11:00,
2013-08-08 07:32:00,51.0,36.0,-100.00,South,180,2.0,4.0,55,-99.99,,,-99.99,,2013-08-08 13:32:00,
2013-08-08 07:53:00,52.0,38.0,-100.00,SSW,195,2.0,4.0,58,-99.99,,,-99.99,,2013-08-08 13:53:00,
2013-08-08 08:11:00,53.0,40.0,-100.00,SSW,200,1.0,3.0,60,-99.99,,,-99.99,,2013-08-08 14:11:00,
2013-08-08 08:32:00,56.0,42.0,-100.00,South,190,1.0,4.0,57,-99.99,,,-99.99,,2013-08-08 14:32:00,
2013-08-08 09:11:00,59.0,42.0,-100.00,South,175,1.0,4.0,53,-99.99,,,-99.99,,2013-08-08 15:11:00,
2013-08-08 09:32:00,59.0,42.0,-100.00,South,175,1.0,4.0,53,-99.99,,,-99.99,,2013-08-08 15:32:00,
2013-08-08 09:53:00,59.0,42.0,-100.00,South,175,1.0,4.0,53,-99.99,,,-99.99,,2013-08-08 15:53:00,
2013-08-08 10:11:00,60.0,42.0,-100.00,South,170,1.0,5.0,52,-99.99,,,-99.99,,2013-08-08 16:11:00,
2013-08-08 10:32:00,61.0,45.0,-100.00,South,180,3.0,6.0,54,-99.99,,,-99.99,,2013-08-08 16:32:00,
2013-08-08 10:52:00,62.0,44.0,-100.00,South,175,3.0,6.0,53,-99.99,,,-99.99,,2013-08-08 16:52:00,
2013-08-08 11:11:00,63.0,44.0,-100.00,SSE,160,1.0,7.0,50,-99.99,,,-99.99,,2013-08-08 17:11:00,
2013-08-08 11:32:00,64.0,47.0,-100.00,South,180,4.0,11.0,54,-99.99,,,-99.99,,2013-08-08 17:32:00,
2013-08-08 11:52:00,63.0,49.0,-100.00,SSW,195,4.0,9.0,59,-99.99,,,-99.99,,2013-08-08 17:52:00,
2013-08-08 12:11:00,62.0,48.0,-100.00,SSW,195,6.0,9.0,59,-99.99,,,-99.99,,2013-08-08 18:11:00,
2013-08-08 12:32:00,64.0,49.0,-100.00,SSW,200,6.0,11.0,59,-99.99,,,-99.99,,2013-08-08 18:32:00,
2013-08-08 12:53:00,65.0,49.0,-100.00,South,190,3.0,12.0,57,-99.99,,,-99.99,,2013-08-08 18:53:00,
2013-08-08 13:11:00,65.0,50.0,-100.00,South,190,6.0,11.0,56,-99.99,,,-99.99,,2013-08-08 19:11:00,
2013-08-08 13:32:00,63.0,49.0,-100.00,SSW,200,6.0,12.0,59,-99.99,,,-99.99,,2013-08-08 19:32:00,
2013-08-08 13:58:00,60.0,48.0,-100.00,SW,215,6.0,10.0,64,-99.99,,,-99.99,,2013-08-08 19:58:00,
2013-08-08 14:11:00,59.0,49.0,-100.00,SW,230,4.0,11.0,67,-99.99,,,-99.99,,2013-08-08 20:11:00,
2013-08-08 14:32:00,61.0,49.0,-100.00,SW,215,4.0,9.0,63,-99.99,,,-99.99,,2013-08-08 20:32:00,
2013-08-08 14:52:00,60.0,47.0,-100.00,SW,215,4.0,7.0,63,-99.99,,,-99.99,,2013-08-08 20:52:00,
2013-08-08 15:13:00,60.0,47.0,-100.00,SSW,210,2.0,9.0,62,-99.99,,,-99.99,,2013-08-08 21:13:00,
2013-08-08 15:33:00,61.0,47.0,-100.00,SSW,205,1.0,7.0,61,-99.99,,,-99.99,,2013-08-08 21:33:00,
2013-08-08 15:57:00,63.0,46.0,-100.00,South,180,4.0,10.0,54,-99.99,,,-99.99,,2013-08-08 21:57:00,
2013-08-08 16:34:00,59.0,47.0,-100.00,SW,215,3.0,9.0,63,-99.99,,,-99.99,,2013-08-08 22:34:00,
2013-08-08 17:14:00,55.0,42.0,-100.00,SSW,210,1.0,6.0,61,-99.99,,,-99.99,,2013-08-08 23:14:00,
2013-08-08 17:35:00,51.0,44.0,-100.00,West,265,4.0,9.0,76,-99.99,,,-99.99,,2013-08-08 23:35:00,
2013-08-08 17:57:00,49.0,43.0,-100.00,West,280,3.0,8.0,79,-99.99,,,-99.99,,2013-08-08 23:57:00,
2013-08-08 18:14:00,50.0,42.0,-100.00,WSW,250,5.0,12.0,71,-99.99,,,-99.99,,2013-08-09 00:14:00,
2013-08-08 18:34:00,51.0,41.0,-100.00,WSW,240,7.0,14.0,69,-99.99,,,-99.99,,2013-08-09 00:34:00,
2013-08-08 18:55:00,52.0,38.0,-100.00,SSW,200,7.0,12.0,59,-99.99,,,-99.99,,2013-08-09 00:55:00,
2013-08-08 19:14:00,54.0,39.0,-100.00,South,185,4.0,9.0,55,-99.99,,,-99.99,,2013-08-09 01:14:00,
2013-08-08 19:33:00,54.0,38.0,-100.00,South,170,4.0,15.0,53,-99.99,,,-99.99,,2013-08-09 01:33:00,
2013-08-08 19:59:00,54.0,38.0,-100.00,South,180,2.0,6.0,54,-99.99,,,-99.99,,2013-08-09 01:59:00,
2013-08-08 20:12:00,52.0,40.0,-100.00,SW,215,2.0,4.0,64,-99.99,,,-99.99,,2013-08-09 02:12:00,
2013-08-08 20:35:00,50.0,38.0,-100.00,SW,215,2.0,4.0,63,-99.99,,,-99.99,,2013-08-09 02:35:00,
2013-08-08 20:57:00,50.0,36.0,-100.00,SSW,195,1.0,4.0,59,-99.99,,,-99.99,,2013-08-09 02:57:00,
2013-08-08 21:14:00,49.0,37.0,-100.00,SSW,210,2.0,4.0,62,-99.99,,,-99.99,,2013-08-09 03:14:00,
2013-08-08 21:34:00,50.0,37.0,-100.00,SSW,205,3.0,4.0,61,-99.99,,,-99.99,,2013-08-09 03:34:00,
2013-08-08 21:56:00,50.0,38.0,-100.00,SSW,210,1.0,4.0,62,-99.99,,,-99.99,,2013-08-09 03:56:00,
2013-08-08 22:12:00,51.0,38.0,-100.00,SSW,210,1.0,5.0,62,-99.99,,,-99.99,,2013-08-09 04:12:00,
2013-08-08 22:33:00,51.0,38.0,-100.00,SSW,210,1.0,3.0,62,-99.99,,,-99.99,,2013-08-09 04:33:00,
2013-08-08 22:53:00,50.0,39.0,-100.00,SW,220,2.0,4.0,64,-99.99,,,-99.99,,2013-08-09 04:53:00,
2013-08-08 23:11:00,49.0,39.0,-100.00,SW,235,2.0,4.0,69,-99.99,,,-99.99,,2013-08-09 05:11:00,
2013-08-08 23:32:00,49.0,40.0,-100.00,WSW,245,2.0,6.0,71,-99.99,,,-99.99,,2013-08-09 05:32:00,
2013-08-08 23:52:00,49.0,40.0,-100.00,WSW,245,2.0,4.0,71,-99.99,,,-99.99,,2013-08-09 05:52:00,